Time;durP1;ratioP1;P1;durP2;ratioP2;P2;SDS_P1;SDS_P2;PMS_P1;PMS_P2;Temp;Humidity;BMP_temperature;BMP_pressure;BME280_temperature;BME280_humidity;BME280_pressure;Samples;Min_cycle;Max_cycle;Signal;HPM_P1;HPM_P2
2022/09/11 00:01:47;;;;;;;0.85;0.85;;;;;;;;;;5129574;27;20602;-69
2022/09/11 00:04:15;;;;;;;0.70;0.70;;;;;;;;;;5129985;27;20230;-69
2022/09/11 00:06:42;;;;;;;1.42;0.77;;;;;;;;;;5120996;27;20454;-70
2022/09/11 00:09:10;;;;;;;1.33;0.70;;;;;;;;;;5122752;27;20195;-68
2022/09/11 00:11:40;;;;;;;0.80;0.70;;;;;;;;;;5120912;27;20205;-70
2022/09/11 00:14:09;;;;;;;0.70;0.70;;;;;;;;;;5130531;27;20195;-70
2022/09/11 00:16:38;;;;;;;0.70;0.70;;;;;;;;;;5128112;27;20536;-72
2022/09/11 00:19:08;;;;;;;0.70;0.70;;;;;;;;;;5129615;27;20202;-72
2022/09/11 00:21:35;;;;;;;1.15;0.75;;;;;;;;;;5128776;27;20210;-71
2022/09/11 00:24:03;;;;;;;0.80;0.80;;;;;;;;;;5128127;27;20194;-71
2022/09/11 00:26:30;;;;;;;0.63;0.63;;;;;;;;;;5120946;27;20653;-72
2022/09/11 00:28:59;;;;;;;0.70;0.70;;;;;;;;;;5131327;27;20195;-71
2022/09/11 00:31:28;;;;;;;0.60;0.60;;;;;;;;;;5129663;27;20627;-71
2022/09/11 00:33:56;;;;;;;0.68;0.68;;;;;;;;;;5132316;27;20333;-70
2022/09/11 00:36:25;;;;;;;0.70;0.70;;;;;;;;;;5135008;27;20242;-70
2022/09/11 00:38:53;;;;;;;0.60;0.60;;;;;;;;;;5138483;27;20209;-71
2022/09/11 00:41:21;;;;;;;0.75;0.70;;;;;;;;;;5137344;27;20221;-70
2022/09/11 00:43:54;;;;;;;0.82;0.70;;;;;;;;;;5138230;27;20209;-70
2022/09/11 00:46:22;;;;;;;0.73;0.73;;;;;;;;;;5137971;27;20195;-71
2022/09/11 00:48:49;;;;;;;0.82;0.70;;;;;;;;;;5138526;27;20202;-70
2022/09/11 00:51:21;;;;;;;0.68;0.60;;;;;;;;;;5138469;27;20199;-71
2022/09/11 00:53:50;;;;;;;1.23;0.60;;;;;;;;;;5137442;27;20600;-71
2022/09/11 00:56:17;;;;;;;0.63;0.60;;;;;;;;;;5135664;27;20221;-72
2022/09/11 00:58:47;;;;;;;0.70;0.70;;;;;;;;;;5137355;27;20205;-71
2022/09/11 01:01:14;;;;;;;1.25;0.70;;;;;;;;;;5137463;27;20206;-71
2022/09/11 01:03:43;;;;;;;0.70;0.70;;;;;;;;;;5138580;27;20194;-71
2022/09/11 01:06:10;;;;;;;1.38;0.70;;;;;;;;;;5137858;27;20590;-70
2022/09/11 01:08:38;;;;;;;1.10;0.63;;;;;;;;;;5137928;27;20209;-70
2022/09/11 01:11:13;;;;;;;0.88;0.70;;;;;;;;;;5138029;27;20201;-70
2022/09/11 01:13:45;;;;;;;0.70;0.70;;;;;;;;;;5136707;27;20194;-70
2022/09/11 01:16:17;;;;;;;0.70;0.60;;;;;;;;;;5136411;27;20218;-71
2022/09/11 01:18:50;;;;;;;0.77;0.77;;;;;;;;;;5137358;27;20234;-73
2022/09/11 01:21:35;;;;;;;0.80;0.80;;;;;;;;;;5137323;27;20203;-70
2022/09/11 01:24:08;;;;;;;0.70;0.70;;;;;;;;;;5136900;27;20208;-70
2022/09/11 01:26:53;;;;;;;0.77;0.77;;;;;;;;;;5129321;27;20199;-69
2022/09/11 01:29:26;;;;;;;0.60;0.60;;;;;;;;;;5138713;27;20646;-70
2022/09/11 01:31:57;;;;;;;0.80;0.80;;;;;;;;;;5132850;27;20190;-72
2022/09/11 01:34:29;;;;;;;0.68;0.68;;;;;;;;;;5136156;27;20308;-72
2022/09/11 01:36:58;;;;;;;0.60;0.60;;;;;;;;;;5138371;27;20226;-72
2022/09/11 01:39:29;;;;;;;0.80;0.70;;;;;;;;;;5138029;27;20194;-71
2022/09/11 01:41:59;;;;;;;0.70;0.70;;;;;;;;;;5137957;27;20217;-70
2022/09/11 01:44:30;;;;;;;0.63;0.60;;;;;;;;;;5138150;27;20209;-71
2022/09/11 01:46:58;;;;;;;0.98;0.70;;;;;;;;;;5138329;27;20220;-71
2022/09/11 01:49:27;;;;;;;1.38;0.70;;;;;;;;;;5136669;27;20194;-70
2022/09/11 01:51:57;;;;;;;1.70;0.70;;;;;;;;;;5138179;27;20614;-70
2022/09/11 01:54:28;;;;;;;1.20;0.55;;;;;;;;;;5137902;27;20217;-67
2022/09/11 01:56:59;;;;;;;0.90;0.85;;;;;;;;;;5137279;27;20226;-69
2022/09/11 01:59:31;;;;;;;1.00;0.70;;;;;;;;;;5138222;27;20198;-70
2022/09/11 02:02:01;;;;;;;0.68;0.55;;;;;;;;;;5139014;27;20221;-70
2022/09/11 02:04:30;;;;;;;0.75;0.70;;;;;;;;;;5137668;27;20194;-70
2022/09/11 02:07:02;;;;;;;0.57;0.57;;;;;;;;;;5138541;27;20194;-69
2022/09/11 02:09:34;;;;;;;1.05;0.65;;;;;;;;;;5137926;27;20286;-70
2022/09/11 02:12:05;;;;;;;0.60;0.60;;;;;;;;;;5136470;27;20226;-71
2022/09/11 02:14:37;;;;;;;0.60;0.60;;;;;;;;;;5136744;27;20198;-70
2022/09/11 02:17:09;;;;;;;0.60;0.60;;;;;;;;;;5137557;27;20228;-71
2022/09/11 02:19:38;;;;;;;0.63;0.63;;;;;;;;;;5136989;27;20206;-71
2022/09/11 02:22:06;;;;;;;0.60;0.60;;;;;;;;;;5137273;27;20198;-70
2022/09/11 02:24:34;;;;;;;0.98;0.70;;;;;;;;;;5137172;27;20234;-72
2022/09/11 02:27:02;;;;;;;0.50;0.50;;;;;;;;;;5137632;27;20499;-72
2022/09/11 02:29:29;;;;;;;0.70;0.60;;;;;;;;;;5137605;27;20198;-72
2022/09/11 02:31:59;;;;;;;0.60;0.60;;;;;;;;;;5137191;27;20221;-72
2022/09/11 02:34:28;;;;;;;0.45;0.45;;;;;;;;;;5134374;27;20601;-72
2022/09/11 02:37:09;;;;;;;0.63;0.60;;;;;;;;;;5137554;28;20222;-72
2022/09/11 02:39:45;;;;;;;0.93;0.60;;;;;;;;;;5134009;28;20488;-69
2022/09/11 02:42:26;;;;;;;0.50;0.50;;;;;;;;;;5137988;28;20202;-70
2022/09/11 02:44:57;;;;;;;0.60;0.60;;;;;;;;;;5123612;28;20252;-72
2022/09/11 02:47:34;;;;;;;1.05;0.50;;;;;;;;;;5117864;28;20300;-72
2022/09/11 02:50:06;;;;;;;1.20;0.70;;;;;;;;;;5117273;28;20599;-72
2022/09/11 02:52:39;;;;;;;2.45;0.77;;;;;;;;;;5117274;28;20203;-70
2022/09/11 02:55:10;;;;;;;1.05;0.55;;;;;;;;;;5117403;28;20211;-73
2022/09/11 02:57:41;;;;;;;0.63;0.57;;;;;;;;;;5136147;28;20222;-72
2022/09/11 03:00:09;;;;;;;1.15;0.60;;;;;;;;;;5138394;28;20651;-72
2022/09/11 03:02:40;;;;;;;0.73;0.50;;;;;;;;;;5138409;28;20206;-72
2022/09/11 03:05:07;;;;;;;0.88;0.70;;;;;;;;;;5138243;28;20203;-72
2022/09/11 03:07:35;;;;;;;0.60;0.60;;;;;;;;;;5138141;28;20202;-72
2022/09/11 03:10:02;;;;;;;0.52;0.52;;;;;;;;;;5121320;28;20210;-72
2022/09/11 03:12:30;;;;;;;0.57;0.57;;;;;;;;;;5118816;28;20196;-72
2022/09/11 03:14:57;;;;;;;0.63;0.63;;;;;;;;;;5117815;28;20273;-72
2022/09/11 03:17:25;;;;;;;0.60;0.60;;;;;;;;;;5137959;28;20488;-72
2022/09/11 03:19:54;;;;;;;0.77;0.73;;;;;;;;;;5138445;28;20210;-71
2022/09/11 03:22:21;;;;;;;0.60;0.60;;;;;;;;;;5138026;28;20195;-71
2022/09/11 03:24:48;;;;;;;0.65;0.55;;;;;;;;;;5138357;28;20301;-71
2022/09/11 03:27:16;;;;;;;0.65;0.60;;;;;;;;;;5119202;28;20518;-71
2022/09/11 03:29:45;;;;;;;0.57;0.55;;;;;;;;;;5136643;28;20198;-71
2022/09/11 03:32:12;;;;;;;0.63;0.50;;;;;;;;;;5136587;28;20225;-71
2022/09/11 03:34:40;;;;;;;0.70;0.70;;;;;;;;;;5129768;27;20646;-71
2022/09/11 03:37:08;;;;;;;1.15;0.60;;;;;;;;;;5135727;28;20218;-71
2022/09/11 03:39:36;;;;;;;0.50;0.50;;;;;;;;;;5127381;27;20206;-71
2022/09/11 03:42:03;;;;;;;0.60;0.60;;;;;;;;;;5139518;27;20652;-71
2022/09/11 03:44:30;;;;;;;0.70;0.70;;;;;;;;;;5141156;27;20203;-71
2022/09/11 03:46:59;;;;;;;0.60;0.60;;;;;;;;;;5139759;27;20195;-71
2022/09/11 03:49:26;;;;;;;0.60;0.60;;;;;;;;;;5142160;27;20202;-71
2022/09/11 03:51:53;;;;;;;0.63;0.50;;;;;;;;;;5140926;27;20266;-71
2022/09/11 03:54:23;;;;;;;0.50;0.50;;;;;;;;;;5141383;27;20209;-72
2022/09/11 03:56:51;;;;;;;1.00;0.60;;;;;;;;;;5141555;27;20474;-71
2022/09/11 03:59:18;;;;;;;0.45;0.45;;;;;;;;;;5140651;27;20198;-71
2022/09/11 04:01:48;;;;;;;0.90;0.70;;;;;;;;;;5141723;27;20251;-71
2022/09/11 04:04:16;;;;;;;0.50;0.50;;;;;;;;;;5123866;27;20198;-71
2022/09/11 04:06:44;;;;;;;0.60;0.57;;;;;;;;;;5140438;27;20198;-71
2022/09/11 04:09:11;;;;;;;0.50;0.50;;;;;;;;;;5139189;27;20198;-71
2022/09/11 04:11:40;;;;;;;0.50;0.50;;;;;;;;;;5139712;27;20579;-71
2022/09/11 04:14:07;;;;;;;0.95;0.52;;;;;;;;;;5140247;27;20199;-71
2022/09/11 04:16:35;;;;;;;1.05;0.70;;;;;;;;;;5140798;27;20198;-71
2022/09/11 04:19:02;;;;;;;0.50;0.50;;;;;;;;;;5139896;27;20494;-71
2022/09/11 04:21:30;;;;;;;0.50;0.50;;;;;;;;;;5141325;27;20217;-71
2022/09/11 04:23:59;;;;;;;0.52;0.52;;;;;;;;;;5139609;27;20191;-71
2022/09/11 04:26:27;;;;;;;0.60;0.60;;;;;;;;;;5139217;27;20209;-71
2022/09/11 04:28:56;;;;;;;0.50;0.50;;;;;;;;;;5139496;27;20190;-71
2022/09/11 04:31:25;;;;;;;0.57;0.45;;;;;;;;;;5139598;27;20199;-70
2022/09/11 04:33:53;;;;;;;0.50;0.50;;;;;;;;;;5139705;27;20232;-71
2022/09/11 04:36:21;;;;;;;0.50;0.50;;;;;;;;;;5139975;27;20217;-71
2022/09/11 04:38:49;;;;;;;0.50;0.50;;;;;;;;;;5140526;27;20576;-71
2022/09/11 04:41:17;;;;;;;0.80;0.50;;;;;;;;;;5138876;27;20206;-71
2022/09/11 04:43:44;;;;;;;0.68;0.68;;;;;;;;;;5138954;27;20206;-71
2022/09/11 04:46:14;;;;;;;0.60;0.60;;;;;;;;;;5139417;27;20198;-71
2022/09/11 04:48:44;;;;;;;0.60;0.60;;;;;;;;;;5139731;27;20202;-71
2022/09/11 04:51:20;;;;;;;0.55;0.55;;;;;;;;;;5140395;27;20203;-72
2022/09/11 04:53:48;;;;;;;0.50;0.50;;;;;;;;;;5139338;27;20198;-72
2022/09/11 04:56:15;;;;;;;0.73;0.50;;;;;;;;;;5139395;27;20259;-72
2022/09/11 04:58:43;;;;;;;0.60;0.60;;;;;;;;;;5139336;27;20219;-72
2022/09/11 05:01:12;;;;;;;0.50;0.50;;;;;;;;;;5139680;27;20530;-72
2022/09/11 05:03:42;;;;;;;0.55;0.55;;;;;;;;;;5139425;27;20499;-71
2022/09/11 05:06:15;;;;;;;0.93;0.80;;;;;;;;;;5139951;27;20206;-72
2022/09/11 05:08:44;;;;;;;0.70;0.70;;;;;;;;;;5138384;27;20205;-72
2022/09/11 05:11:12;;;;;;;0.77;0.75;;;;;;;;;;5139787;27;20194;-72
2022/09/11 05:13:39;;;;;;;0.88;0.70;;;;;;;;;;5138740;27;20194;-72
2022/09/11 05:16:08;;;;;;;0.73;0.73;;;;;;;;;;5138764;27;20209;-72
2022/09/11 05:18:35;;;;;;;0.70;0.70;;;;;;;;;;5138988;27;20222;-72
2022/09/11 05:21:05;;;;;;;0.80;0.70;;;;;;;;;;5139646;27;20213;-71
2022/09/11 05:23:33;;;;;;;0.80;0.80;;;;;;;;;;5139002;27;20642;-72
2022/09/11 05:26:00;;;;;;;0.93;0.70;;;;;;;;;;5139529;27;20281;-72
2022/09/11 05:28:28;;;;;;;0.60;0.60;;;;;;;;;;5139126;27;20198;-72
2022/09/11 05:30:55;;;;;;;0.80;0.80;;;;;;;;;;5138417;27;20198;-72
2022/09/11 05:33:23;;;;;;;0.80;0.80;;;;;;;;;;5138790;27;20230;-71
2022/09/11 05:35:51;;;;;;;0.63;0.63;;;;;;;;;;5138467;27;20202;-71
2022/09/11 05:38:19;;;;;;;0.70;0.70;;;;;;;;;;5139160;27;20222;-71
2022/09/11 05:40:48;;;;;;;1.05;0.68;;;;;;;;;;5137789;27;20206;-72
2022/09/11 05:43:15;;;;;;;0.80;0.70;;;;;;;;;;5137748;27;20195;-72
2022/09/11 05:45:44;;;;;;;0.70;0.70;;;;;;;;;;5137096;27;20200;-72
2022/09/11 05:48:12;;;;;;;0.88;0.88;;;;;;;;;;5138863;27;20194;-72
2022/09/11 05:50:39;;;;;;;0.90;0.70;;;;;;;;;;5138108;27;20297;-72
2022/09/11 05:53:07;;;;;;;0.70;0.70;;;;;;;;;;5138499;27;20207;-71
2022/09/11 05:55:36;;;;;;;0.82;0.80;;;;;;;;;;5138152;27;20206;-71
2022/09/11 05:58:03;;;;;;;0.80;0.80;;;;;;;;;;5138289;27;20233;-71
2022/09/11 06:00:31;;;;;;;0.95;0.80;;;;;;;;;;5138550;27;20620;-72
2022/09/11 06:02:58;;;;;;;0.60;0.60;;;;;;;;;;5138247;27;20190;-72
2022/09/11 06:05:25;;;;;;;1.05;0.70;;;;;;;;;;5137230;27;20487;-72
2022/09/11 06:07:53;;;;;;;0.75;0.68;;;;;;;;;;5138847;27;20264;-71
2022/09/11 06:10:20;;;;;;;0.68;0.68;;;;;;;;;;5138725;27;20217;-72
2022/09/11 06:12:49;;;;;;;0.90;0.90;;;;;;;;;;5137991;27;20194;-72
2022/09/11 06:15:16;;;;;;;0.60;0.60;;;;;;;;;;5138086;27;20206;-72
2022/09/11 06:17:44;;;;;;;0.80;0.80;;;;;;;;;;5136684;27;20206;-71
2022/09/11 06:20:11;;;;;;;0.80;0.80;;;;;;;;;;5137073;27;20252;-72
2022/09/11 06:22:39;;;;;;;0.60;0.60;;;;;;;;;;5136448;27;20206;-71
2022/09/11 06:25:07;;;;;;;0.68;0.68;;;;;;;;;;5138445;27;20296;-72
2022/09/11 06:27:34;;;;;;;0.77;0.77;;;;;;;;;;5137029;27;20489;-71
2022/09/11 06:30:03;;;;;;;0.80;0.80;;;;;;;;;;5136516;27;20198;-71
2022/09/11 06:32:30;;;;;;;0.80;0.80;;;;;;;;;;5138052;27;20213;-71
2022/09/11 06:34:57;;;;;;;0.90;0.90;;;;;;;;;;5116907;28;20203;-71
2022/09/11 06:37:25;;;;;;;0.80;0.80;;;;;;;;;;5116681;28;20747;-71
2022/09/11 06:39:52;;;;;;;0.70;0.70;;;;;;;;;;5116839;28;20222;-71
2022/09/11 06:42:19;;;;;;;1.00;0.90;;;;;;;;;;5116845;28;20199;-71
2022/09/11 06:44:48;;;;;;;0.93;0.80;;;;;;;;;;5117268;28;20610;-71
2022/09/11 06:47:17;;;;;;;1.13;0.75;;;;;;;;;;5116920;28;20195;-71
2022/09/11 06:49:45;;;;;;;0.77;0.77;;;;;;;;;;5118001;28;20199;-72
2022/09/11 06:52:12;;;;;;;1.15;0.80;;;;;;;;;;5117295;28;20229;-72
2022/09/11 06:54:39;;;;;;;0.70;0.70;;;;;;;;;;5117375;28;20228;-72
2022/09/11 06:57:07;;;;;;;0.90;0.90;;;;;;;;;;5116996;28;20369;-72
2022/09/11 06:59:34;;;;;;;0.80;0.80;;;;;;;;;;5117513;28;20237;-71
2022/09/11 07:02:02;;;;;;;0.90;0.90;;;;;;;;;;5116582;28;20199;-71
2022/09/11 07:04:30;;;;;;;0.80;0.80;;;;;;;;;;5116297;28;20203;-71
2022/09/11 07:06:58;;;;;;;1.10;1.00;;;;;;;;;;5116888;28;20599;-72
2022/09/11 07:09:25;;;;;;;1.05;0.82;;;;;;;;;;5117500;28;20210;-72
2022/09/11 07:11:53;;;;;;;0.98;0.88;;;;;;;;;;5117060;28;20206;-72
2022/09/11 07:14:22;;;;;;;1.10;1.00;;;;;;;;;;5116435;28;20222;-72
2022/09/11 07:16:54;;;;;;;0.70;0.70;;;;;;;;;;5118528;28;20231;-71
2022/09/11 07:19:23;;;;;;;0.90;0.90;;;;;;;;;;5120324;28;20218;-71
2022/09/11 07:21:52;;;;;;;1.17;0.88;;;;;;;;;;5100550;28;20215;-71
2022/09/11 07:24:20;;;;;;;0.82;0.82;;;;;;;;;;5105030;28;20195;-71
2022/09/11 07:26:47;;;;;;;1.10;0.98;;;;;;;;;;5120825;28;20575;-71
2022/09/11 07:29:14;;;;;;;1.13;1.02;;;;;;;;;;5096288;28;20207;-71
2022/09/11 07:31:42;;;;;;;1.00;1.00;;;;;;;;;;5100822;28;20207;-71
2022/09/11 07:34:10;;;;;;;1.25;1.15;;;;;;;;;;5134012;27;20257;-71
2022/09/11 07:36:37;;;;;;;0.90;0.90;;;;;;;;;;5130381;27;20222;-71
2022/09/11 07:39:06;;;;;;;1.00;1.00;;;;;;;;;;5120895;28;20231;-71
2022/09/11 07:41:34;;;;;;;1.20;1.10;;;;;;;;;;5120899;28;20203;-71
2022/09/11 07:44:02;;;;;;;1.08;1.08;;;;;;;;;;5122549;27;20199;-71
2022/09/11 07:46:31;;;;;;;1.23;1.13;;;;;;;;;;5121455;27;20195;-70
2022/09/11 07:49:00;;;;;;;1.05;0.95;;;;;;;;;;5119336;28;20195;-72
2022/09/11 07:51:28;;;;;;;1.00;1.00;;;;;;;;;;5120169;27;20195;-70
2022/09/11 07:53:58;;;;;;;1.20;1.10;;;;;;;;;;5119414;28;20210;-70
2022/09/11 07:56:28;;;;;;;1.10;1.00;;;;;;;;;;5122665;27;20276;-69
2022/09/11 07:58:56;;;;;;;0.90;0.90;;;;;;;;;;5139855;27;20228;-70
2022/09/11 08:01:24;;;;;;;1.20;1.10;;;;;;;;;;5140209;27;20301;-70
2022/09/11 08:03:55;;;;;;;1.40;1.30;;;;;;;;;;5139294;27;20198;-70
2022/09/11 08:06:24;;;;;;;1.20;1.10;;;;;;;;;;5137776;27;20222;-70
2022/09/11 08:08:53;;;;;;;1.10;1.00;;;;;;;;;;5120263;27;20260;-71
2022/09/11 08:11:21;;;;;;;1.33;1.23;;;;;;;;;;5119735;28;20203;-71
2022/09/11 08:13:50;;;;;;;1.10;1.08;;;;;;;;;;5118890;28;20215;-71
2022/09/11 08:16:18;;;;;;;1.33;1.25;;;;;;;;;;5119501;27;20207;-71
2022/09/11 08:18:46;;;;;;;1.23;1.00;;;;;;;;;;5139386;27;20525;-71
2022/09/11 08:21:32;;;;;;;1.15;1.10;;;;;;;;;;5139922;27;20234;-71
2022/09/11 08:23:59;;;;;;;1.45;1.35;;;;;;;;;;5138335;27;20233;-71
2022/09/11 08:26:28;;;;;;;1.40;1.30;;;;;;;;;;5140191;27;20479;-71
2022/09/11 08:28:58;;;;;;;1.50;1.40;;;;;;;;;;5121722;27;20641;-71
2022/09/11 08:31:26;;;;;;;1.40;1.30;;;;;;;;;;5139261;27;20255;-71
2022/09/11 08:33:54;;;;;;;1.33;1.23;;;;;;;;;;5125010;27;20630;-71
2022/09/11 08:36:21;;;;;;;1.45;1.35;;;;;;;;;;5118768;28;20206;-71
2022/09/11 08:38:50;;;;;;;1.65;1.55;;;;;;;;;;5118881;28;20234;-72
2022/09/11 08:41:26;;;;;;;1.75;1.50;;;;;;;;;;5110364;28;20195;-71
2022/09/11 08:43:56;;;;;;;1.90;1.60;;;;;;;;;;5118424;28;20222;-71
2022/09/11 08:46:26;;;;;;;1.60;1.50;;;;;;;;;;5118864;28;20202;-70
2022/09/11 08:48:57;;;;;;;2.13;1.50;;;;;;;;;;5118548;28;20487;-71
2022/09/11 08:51:25;;;;;;;3.22;1.48;;;;;;;;;;5119439;28;20217;-71
2022/09/11 08:53:54;;;;;;;1.40;1.30;;;;;;;;;;5118669;28;20245;-71
2022/09/11 08:56:23;;;;;;;1.67;1.58;;;;;;;;;;5118895;28;20591;-71
2022/09/11 08:59:02;;;;;;;1.73;1.58;;;;;;;;;;5118261;28;20237;-71
2022/09/11 09:01:35;;;;;;;1.77;1.67;;;;;;;;;;5117300;28;20202;-70
2022/09/11 09:04:22;;;;;;;1.70;1.60;;;;;;;;;;5118681;28;20297;-71
2022/09/11 09:06:55;;;;;;;1.63;1.52;;;;;;;;;;5118306;28;20199;-71
2022/09/11 09:09:27;;;;;;;2.00;1.80;;;;;;;;;;5102406;28;20191;-71
2022/09/11 09:11:58;;;;;;;2.20;1.48;;;;;;;;;;5118609;28;20210;-71
2022/09/11 09:14:45;;;;;;;2.15;1.80;;;;;;;;;;5119934;28;20751;-71
2022/09/11 09:17:18;;;;;;;1.67;1.58;;;;;;;;;;5136248;27;20198;-71
2022/09/11 09:19:48;;;;;;;2.47;1.70;;;;;;;;;;5118416;28;20288;-71
2022/09/11 09:22:18;;;;;;;1.67;1.58;;;;;;;;;;5117838;28;20703;-71
2022/09/11 09:24:48;;;;;;;1.83;1.73;;;;;;;;;;5118068;28;20571;-71
2022/09/11 09:27:18;;;;;;;2.00;1.90;;;;;;;;;;5117806;28;20211;-71
2022/09/11 09:29:46;;;;;;;3.45;1.73;;;;;;;;;;5117070;28;20205;-71
2022/09/11 09:32:19;;;;;;;1.95;1.85;;;;;;;;;;5117730;28;20191;-71
2022/09/11 09:34:49;;;;;;;2.45;1.75;;;;;;;;;;5109612;28;20317;-71
2022/09/11 09:37:18;;;;;;;2.00;1.90;;;;;;;;;;5117463;28;20203;-71
2022/09/11 09:39:46;;;;;;;1.83;1.70;;;;;;;;;;5116168;28;20276;-71
2022/09/11 09:42:31;;;;;;;2.05;1.85;;;;;;;;;;5117377;28;20236;-70
2022/09/11 09:45:04;;;;;;;1.80;1.70;;;;;;;;;;5117132;28;20199;-71
2022/09/11 09:47:33;;;;;;;3.15;2.00;;;;;;;;;;5117275;28;20213;-70
2022/09/11 09:50:01;;;;;;;1.88;1.77;;;;;;;;;;5116957;28;20694;-71
2022/09/11 09:52:32;;;;;;;1.98;1.80;;;;;;;;;;5117538;28;20202;-71
2022/09/11 09:55:00;;;;;;;1.80;1.70;;;;;;;;;;5117009;28;20206;-71
2022/09/11 09:57:30;;;;;;;1.70;1.60;;;;;;;;;;5116699;28;20206;-70
2022/09/11 10:00:00;;;;;;;1.90;1.80;;;;;;;;;;5116323;28;20215;-72
2022/09/11 10:02:48;;;;;;;1.80;1.70;;;;;;;;;;5116724;28;20203;-71
2022/09/11 10:05:21;;;;;;;1.90;1.80;;;;;;;;;;5116630;28;20384;-70
2022/09/11 10:07:49;;;;;;;2.08;1.90;;;;;;;;;;5116623;28;20225;-70
2022/09/11 10:10:24;;;;;;;2.10;2.00;;;;;;;;;;5116326;28;20191;-69
2022/09/11 10:12:52;;;;;;;2.03;1.90;;;;;;;;;;5116543;28;20263;-70
2022/09/11 10:15:21;;;;;;;1.60;1.50;;;;;;;;;;5116775;28;20207;-71
2022/09/11 10:17:49;;;;;;;2.00;1.90;;;;;;;;;;5116487;28;20608;-71
2022/09/11 10:20:30;;;;;;;2.38;2.17;;;;;;;;;;5115975;28;20669;-70
2022/09/11 10:23:17;;;;;;;1.80;1.70;;;;;;;;;;5115380;28;20199;-70
2022/09/11 10:25:46;;;;;;;2.00;1.90;;;;;;;;;;5115888;28;20202;-71
2022/09/11 10:28:14;;;;;;;1.83;1.73;;;;;;;;;;5114680;28;20199;-72
2022/09/11 10:30:43;;;;;;;2.00;1.90;;;;;;;;;;5115274;28;20187;-72
2022/09/11 10:33:17;;;;;;;2.17;2.00;;;;;;;;;;5119885;27;20234;-72
2022/09/11 10:35:54;;;;;;;2.00;1.90;;;;;;;;;;5136152;27;20208;-71
2022/09/11 10:38:22;;;;;;;1.90;1.80;;;;;;;;;;5130275;28;20191;-72
2022/09/11 10:40:58;;;;;;;1.70;1.60;;;;;;;;;;5127595;28;20222;-71
2022/09/11 10:43:27;;;;;;;2.05;1.83;;;;;;;;;;5135835;27;20193;-71
2022/09/11 10:46:05;;;;;;;1.92;1.83;;;;;;;;;;5135369;28;20210;-71
2022/09/11 10:48:33;;;;;;;1.88;1.77;;;;;;;;;;5125408;28;20457;-71
2022/09/11 10:51:10;;;;;;;1.95;1.83;;;;;;;;;;5132557;27;20624;-71
2022/09/11 10:53:42;;;;;;;1.90;1.80;;;;;;;;;;5140251;27;20204;-70
2022/09/11 10:56:10;;;;;;;1.80;1.70;;;;;;;;;;5139669;27;20202;-70
2022/09/11 10:58:39;;;;;;;1.90;1.80;;;;;;;;;;5127668;27;20262;-69
2022/09/11 11:01:07;;;;;;;2.20;2.00;;;;;;;;;;5133896;27;20214;-71
2022/09/11 11:03:34;;;;;;;1.73;1.63;;;;;;;;;;5139916;27;20187;-71
2022/09/11 11:06:07;;;;;;;1.75;1.65;;;;;;;;;;5140265;27;20582;-72
2022/09/11 11:08:56;;;;;;;2.15;2.05;;;;;;;;;;5129910;27;20191;-71
2022/09/11 11:11:30;;;;;;;1.88;1.77;;;;;;;;;;5129245;27;20289;-70
2022/09/11 11:14:12;;;;;;;1.88;1.77;;;;;;;;;;5139436;27;20197;-72
2022/09/11 11:16:46;;;;;;;1.77;1.67;;;;;;;;;;5136800;27;20252;-71
2022/09/11 11:19:24;;;;;;;1.98;1.80;;;;;;;;;;5128806;27;20239;-71
2022/09/11 11:21:57;;;;;;;1.85;1.75;;;;;;;;;;5140135;27;20516;-71
2022/09/11 11:24:36;;;;;;;2.13;1.88;;;;;;;;;;5139780;27;20194;-71
2022/09/11 11:27:22;;;;;;;2.58;2.00;;;;;;;;;;5139344;27;20217;-71
2022/09/11 11:30:01;;;;;;;2.05;1.95;;;;;;;;;;5109603;27;20202;-72
2022/09/11 11:32:48;;;;;;;2.63;2.00;;;;;;;;;;5139888;27;20581;-71
2022/09/11 11:35:22;;;;;;;2.13;1.92;;;;;;;;;;5130316;27;20198;-71
2022/09/11 11:37:51;;;;;;;3.05;2.10;;;;;;;;;;5136588;27;20194;-71
2022/09/11 11:40:23;;;;;;;2.30;2.10;;;;;;;;;;5125935;27;20233;-71
2022/09/11 11:42:53;;;;;;;2.60;2.40;;;;;;;;;;5135041;27;20202;-71
2022/09/11 11:45:23;;;;;;;2.50;2.30;;;;;;;;;;5155485;27;20229;-71
2022/09/11 11:47:51;;;;;;;2.55;2.20;;;;;;;;;;5155936;27;20293;-71
2022/09/11 11:50:23;;;;;;;2.97;2.30;;;;;;;;;;5138348;27;20266;-71
2022/09/11 11:52:56;;;;;;;3.78;2.50;;;;;;;;;;5137956;27;20604;-70
2022/09/11 11:55:26;;;;;;;3.03;2.78;;;;;;;;;;5144675;27;20190;-71
2022/09/11 11:57:59;;;;;;;3.38;2.40;;;;;;;;;;5159790;27;20205;-71
2022/09/11 12:00:28;;;;;;;4.07;2.80;;;;;;;;;;5143496;27;20729;-71
2022/09/11 12:02:58;;;;;;;3.72;2.95;;;;;;;;;;5137033;27;20199;-71
2022/09/11 12:05:27;;;;;;;3.30;2.67;;;;;;;;;;5135770;27;20478;-71
2022/09/11 12:07:55;;;;;;;4.60;2.90;;;;;;;;;;5138354;27;20198;-71
2022/09/11 12:10:27;;;;;;;3.20;2.85;;;;;;;;;;5138277;27;20198;-71
2022/09/11 12:12:57;;;;;;;3.20;2.90;;;;;;;;;;5137673;27;20221;-71
2022/09/11 12:15:26;;;;;;;4.47;3.28;;;;;;;;;;5136554;27;20190;-71
2022/09/11 12:18:01;;;;;;;6.18;3.33;;;;;;;;;;5137911;27;20209;-71
2022/09/11 12:20:34;;;;;;;4.18;3.22;;;;;;;;;;5137416;27;20218;-71
2022/09/11 12:23:02;;;;;;;5.57;3.38;;;;;;;;;;5137415;27;20267;-71
2022/09/11 12:25:48;;;;;;;5.97;3.50;;;;;;;;;;5119902;27;20610;-71
2022/09/11 12:28:22;;;;;;;6.03;3.40;;;;;;;;;;5138357;27;20204;-71
2022/09/11 12:31:00;;;;;;;4.10;3.10;;;;;;;;;;5137855;27;20205;-71
2022/09/11 12:33:55;;;;;;;5.75;3.80;;;;;;;;;;5135945;27;20634;-72
2022/09/11 12:36:47;;;;;;;5.95;3.33;;;;;;;;;;5068726;28;20293;-72
2022/09/11 12:39:25;;;;;;;6.60;3.80;;;;;;;;;;5090629;28;20583;-73
2022/09/11 12:41:53;;;;;;;7.72;4.03;;;;;;;;;;5114731;28;20290;-73
2022/09/11 12:44:33;;;;;;;6.97;4.22;;;;;;;;;;5123141;27;20294;-71
2022/09/11 12:47:19;;;;;;;7.93;4.55;;;;;;;;;;5135850;27;20194;-72
2022/09/11 12:49:53;;;;;;;6.30;4.40;;;;;;;;;;5136508;27;20212;-72
2022/09/11 12:52:32;;;;;;;7.60;4.63;;;;;;;;;;5136399;27;20205;-72
2022/09/11 12:55:02;;;;;;;8.50;4.90;;;;;;;;;;5122693;27;20210;-71
2022/09/11 12:57:34;;;;;;;7.57;4.72;;;;;;;;;;5124751;27;20251;-73
2022/09/11 13:00:09;;;;;;;7.15;4.65;;;;;;;;;;5136634;27;20595;-72
2022/09/11 13:02:38;;;;;;;7.93;5.10;;;;;;;;;;5135965;27;20209;-73
2022/09/11 13:05:15;;;;;;;7.45;4.57;;;;;;;;;;5136043;27;20199;-71
2022/09/11 13:07:45;;;;;;;7.18;4.78;;;;;;;;;;5136311;27;20198;-72
2022/09/11 13:10:24;;;;;;;6.75;4.68;;;;;;;;;;5136794;27;20819;-71
2022/09/11 13:12:52;;;;;;;7.38;4.45;;;;;;;;;;5135296;27;20221;-71
2022/09/11 13:15:40;;;;;;;6.60;4.55;;;;;;;;;;5120221;27;20215;-71
2022/09/11 13:18:35;;;;;;;7.45;4.28;;;;;;;;;;5131594;27;20204;-72
2022/09/11 13:21:03;;;;;;;6.13;4.40;;;;;;;;;;5073717;27;20229;-72
2022/09/11 13:23:31;;;;;;;9.85;4.68;;;;;;;;;;5136250;27;20264;-71
2022/09/11 13:25:59;;;;;;;7.68;4.85;;;;;;;;;;5115900;28;20195;-71
2022/09/11 13:28:30;;;;;;;6.18;4.88;;;;;;;;;;5131172;27;20203;-72
2022/09/11 13:31:01;;;;;;;6.70;4.50;;;;;;;;;;5128641;27;20230;-72
2022/09/11 13:33:29;;;;;;;6.63;4.25;;;;;;;;;;5135670;27;20277;-73
2022/09/11 13:35:58;;;;;;;5.03;3.97;;;;;;;;;;5136104;27;20218;-71
2022/09/11 13:38:28;;;;;;;5.65;4.28;;;;;;;;;;5136808;27;20206;-72
2022/09/11 13:40:57;;;;;;;6.30;4.53;;;;;;;;;;5136113;27;20229;-70
2022/09/11 13:43:28;;;;;;;6.50;4.30;;;;;;;;;;5136334;27;20210;-70
2022/09/11 13:46:14;;;;;;;6.65;4.32;;;;;;;;;;5134777;27;20195;-70
2022/09/11 13:48:44;;;;;;;6.05;4.40;;;;;;;;;;5101567;27;20218;-70
2022/09/11 13:51:13;;;;;;;5.82;4.18;;;;;;;;;;5109178;28;20263;-69
2022/09/11 13:53:40;;;;;;;6.32;4.78;;;;;;;;;;5114312;27;20203;-71
2022/09/11 13:56:19;;;;;;;6.80;4.45;;;;;;;;;;5134766;27;20213;-71
2022/09/11 13:58:47;;;;;;;6.45;4.68;;;;;;;;;;5134801;27;20204;-72
2022/09/11 14:01:15;;;;;;;5.30;4.20;;;;;;;;;;5135562;27;20260;-71
2022/09/11 14:03:46;;;;;;;8.88;5.03;;;;;;;;;;5135504;27;20672;-71
2022/09/11 14:06:16;;;;;;;4.75;4.03;;;;;;;;;;5135363;27;20202;-71
2022/09/11 14:08:45;;;;;;;7.63;5.30;;;;;;;;;;5134678;27;20616;-72
2022/09/11 14:11:14;;;;;;;9.88;6.18;;;;;;;;;;5135726;27;20198;-71
2022/09/11 14:13:43;;;;;;;9.48;6.78;;;;;;;;;;5135360;27;20210;-72
2022/09/11 14:16:12;;;;;;;10.07;6.78;;;;;;;;;;5115006;27;20558;-72
2022/09/11 14:18:41;;;;;;;11.05;7.18;;;;;;;;;;5133550;27;20285;-73
2022/09/11 14:21:14;;;;;;;10.52;7.82;;;;;;;;;;5135354;27;20226;-72
2022/09/11 14:23:44;;;;;;;9.98;7.50;;;;;;;;;;5131748;27;20202;-71
2022/09/11 14:26:15;;;;;;;12.75;7.47;;;;;;;;;;5125695;27;20202;-71
2022/09/11 14:28:44;;;;;;;11.38;7.22;;;;;;;;;;5135801;27;20198;-72
2022/09/11 14:31:13;;;;;;;9.57;6.85;;;;;;;;;;5134578;27;20820;-71
2022/09/11 14:33:40;;;;;;;8.65;6.78;;;;;;;;;;5134609;27;20299;-71
2022/09/11 14:36:14;;;;;;;9.65;7.38;;;;;;;;;;5135520;27;20208;-72
2022/09/11 14:38:42;;;;;;;9.18;6.93;;;;;;;;;;5135684;27;20210;-71
2022/09/11 14:41:09;;;;;;;8.70;6.57;;;;;;;;;;5135645;27;20221;-72
2022/09/11 14:43:38;;;;;;;8.73;6.70;;;;;;;;;;5135221;27;20684;-71
2022/09/11 14:46:05;;;;;;;7.13;6.32;;;;;;;;;;5134959;27;20198;-72
2022/09/11 14:48:35;;;;;;;8.27;6.25;;;;;;;;;;5136177;28;20213;-72
2022/09/11 14:51:05;;;;;;;6.85;5.82;;;;;;;;;;5137094;28;20198;-72
2022/09/11 14:53:35;;;;;;;7.85;6.07;;;;;;;;;;5134978;28;20205;-72
2022/09/11 14:56:03;;;;;;;8.10;5.97;;;;;;;;;;5114887;28;20725;-72
2022/09/11 14:58:31;;;;;;;8.10;6.10;;;;;;;;;;5130937;27;20209;-72
2022/09/11 15:00:58;;;;;;;9.35;6.25;;;;;;;;;;5134397;27;20274;-72
2022/09/11 15:03:25;;;;;;;7.80;6.10;;;;;;;;;;5134454;27;20237;-73